createdAt,value
2022-09-17T00:01:17.183Z,68.72
2022-09-17T00:03:45.675Z,68.79
2022-09-17T00:06:13.016Z,68.91
2022-09-17T00:08:42.116Z,69.05
2022-09-17T00:11:21.517Z,69.20
2022-09-17T00:13:50.368Z,69.52
2022-09-17T00:16:46.155Z,69.38
2022-09-17T00:19:23.177Z,69.56
2022-09-17T00:21:50.820Z,69.81
2022-09-17T00:24:18.957Z,69.62
2022-09-17T00:26:46.016Z,69.79
2022-09-17T00:29:13.435Z,69.85
2022-09-17T00:31:45.746Z,70.11
2022-09-17T00:34:13.036Z,69.73
2022-09-17T00:36:40.135Z,69.65
2022-09-17T00:39:09.556Z,69.91
2022-09-17T00:41:38.017Z,69.51
2022-09-17T00:44:42.157Z,68.90
2022-09-17T00:47:22.486Z,68.27
2022-09-17T00:49:52.955Z,68.16
2022-09-17T00:52:26.316Z,67.59
2022-09-17T00:55:00.118Z,67.26
2022-09-17T00:57:27.403Z,67.41
2022-09-17T00:59:54.796Z,66.53
2022-09-17T01:02:21.977Z,66.84
2022-09-17T01:04:49.138Z,66.27
2022-09-17T01:07:53.416Z,65.97
2022-09-17T01:10:34.503Z,66.11
2022-09-17T01:13:28.056Z,65.80
2022-09-17T01:16:17.440Z,65.85
2022-09-17T01:19:00.935Z,65.94
2022-09-17T01:21:39.558Z,65.53
2022-09-17T01:24:26.495Z,65.63
2022-09-17T01:27:25.695Z,65.88
2022-09-17T01:30:16.855Z,65.74
2022-09-17T01:33:07.184Z,65.85
2022-09-17T01:35:48.815Z,66.23
2022-09-17T01:38:34.820Z,66.39
2022-09-17T01:41:37.163Z,66.21
2022-09-17T01:44:39.476Z,66.70
2022-09-17T01:47:20.760Z,65.84
2022-09-17T01:49:52.918Z,65.28
2022-09-17T01:52:21.056Z,65.49
2022-09-17T01:54:53.258Z,65.64
2022-09-17T01:57:26.215Z,65.42
2022-09-17T02:00:02.195Z,65.50
2022-09-17T02:02:56.237Z,66.06
2022-09-17T02:05:43.404Z,66.27
2022-09-17T02:08:22.498Z,66.11
2022-09-17T02:11:02.798Z,65.91
2022-09-17T02:13:52.376Z,65.95
2022-09-17T02:16:29.270Z,66.03
2022-09-17T02:19:16.597Z,66.14
2022-09-17T02:22:06.998Z,66.21
2022-09-17T02:25:01.565Z,66.15
2022-09-17T02:27:49.795Z,65.77
2022-09-17T02:30:17.691Z,65.51
2022-09-17T02:32:44.915Z,65.66
2022-09-17T02:35:14.163Z,65.99
2022-09-17T02:37:43.034Z,66.37
2022-09-17T02:40:13.992Z,66.64
2022-09-17T02:43:36.114Z,66.64
2022-09-17T02:46:36.832Z,66.97
2022-09-17T02:49:15.895Z,66.74
2022-09-17T02:52:01.634Z,66.58
2022-09-17T02:54:46.683Z,66.47
2022-09-17T02:57:13.665Z,66.07
2022-09-17T02:59:52.883Z,66.17
2022-09-17T03:02:26.812Z,65.63
2022-09-17T03:04:56.595Z,65.32
2022-09-17T03:07:24.242Z,65.19
2022-09-17T03:09:51.335Z,65.01
2022-09-17T03:12:18.603Z,65.19
2022-09-17T03:14:45.698Z,65.16
2022-09-17T03:17:13.175Z,65.43
2022-09-17T03:19:40.234Z,65.06
2022-09-17T03:22:07.215Z,65.00
2022-09-17T03:24:34.222Z,65.08
2022-09-17T03:27:01.255Z,65.01
2022-09-17T03:29:28.295Z,65.22
2022-09-17T03:31:55.318Z,65.05
2022-09-17T03:34:22.484Z,64.91
2022-09-17T03:36:49.718Z,65.54
2022-09-17T03:39:16.735Z,65.78
2022-09-17T03:41:43.858Z,65.51
2022-09-17T03:44:10.842Z,65.63
2022-09-17T03:46:38.354Z,65.50
2022-09-17T03:49:05.563Z,65.80
2022-09-17T03:51:32.934Z,65.68
2022-09-17T03:53:59.961Z,65.00
2022-09-17T03:56:27.324Z,65.29
2022-09-17T03:59:01.105Z,65.55
2022-09-17T04:01:29.320Z,65.48
2022-09-17T04:03:56.345Z,65.55
2022-09-17T04:06:23.275Z,65.44
2022-09-17T04:08:50.434Z,65.26
2022-09-17T04:11:17.617Z,65.49
2022-09-17T04:13:44.615Z,65.71
2022-09-17T04:16:12.630Z,65.28
2022-09-17T04:18:39.735Z,65.47
2022-09-17T04:21:07.466Z,65.67
2022-09-17T04:23:34.657Z,65.95
2022-09-17T04:26:01.978Z,65.97
2022-09-17T04:28:29.097Z,66.31
2022-09-17T04:30:56.379Z,66.84
2022-09-17T04:33:23.816Z,66.81
2022-09-17T04:35:50.944Z,66.85
2022-09-17T04:38:21.065Z,66.30
2022-09-17T04:40:48.239Z,65.77
2022-09-17T04:43:15.240Z,65.98
2022-09-17T04:45:42.209Z,65.91
2022-09-17T04:48:09.180Z,65.83
2022-09-17T04:50:36.281Z,66.03
2022-09-17T04:53:03.580Z,65.55
2022-09-17T04:55:31.507Z,65.80
2022-09-17T04:57:58.721Z,66.02
2022-09-17T05:00:26.019Z,65.97
2022-09-17T05:02:55.070Z,65.78
2022-09-17T05:05:23.100Z,65.89
2022-09-17T05:07:50.160Z,65.82
2022-09-17T05:10:19.741Z,66.31
2022-09-17T05:12:54.453Z,66.61
2022-09-17T05:15:23.559Z,67.19
2022-09-17T05:17:50.681Z,67.43
2022-09-17T05:20:18.044Z,67.25
2022-09-17T05:22:52.649Z,67.17
2022-09-17T05:25:24.734Z,67.25
2022-09-17T05:27:53.665Z,66.79
2022-09-17T05:30:21.282Z,66.15
2022-09-17T05:32:48.675Z,65.86
2022-09-17T05:35:15.719Z,65.53
2022-09-17T05:37:42.660Z,65.85
2022-09-17T05:40:10.452Z,65.79
2022-09-17T05:42:37.540Z,65.87
2022-09-17T05:45:05.842Z,65.81
2022-09-17T05:47:32.700Z,65.98
2022-09-17T05:50:00.000Z,66.22
2022-09-17T05:52:29.200Z,66.27
2022-09-17T05:54:56.950Z,66.57
2022-09-17T05:57:24.180Z,66.71
2022-09-17T05:59:51.174Z,67.02
2022-09-17T06:02:18.341Z,66.82
2022-09-17T06:04:46.212Z,67.17
2022-09-17T06:07:13.139Z,66.27
2022-09-17T06:09:41.218Z,65.92
2022-09-17T06:12:08.663Z,66.29
2022-09-17T06:14:35.637Z,66.32
2022-09-17T06:17:02.540Z,66.37
2022-09-17T06:19:29.540Z,66.25
2022-09-17T06:21:56.601Z,66.44
2022-09-17T06:24:23.589Z,65.95
2022-09-17T06:26:52.189Z,65.43
2022-09-17T06:29:19.341Z,64.90
2022-09-17T06:31:48.730Z,65.35
2022-09-17T06:34:16.090Z,65.27
2022-09-17T06:36:43.040Z,65.79
2022-09-17T06:39:11.908Z,66.35
2022-09-17T06:41:39.264Z,65.98
2022-09-17T06:44:06.378Z,65.89
2022-09-17T06:46:33.387Z,66.13
2022-09-17T06:49:00.781Z,66.24
2022-09-17T06:51:27.980Z,66.85
2022-09-17T06:53:54.911Z,66.79
2022-09-17T06:56:21.890Z,66.65
2022-09-17T06:58:49.022Z,66.57
2022-09-17T07:01:16.001Z,65.53
2022-09-17T07:03:43.782Z,65.76
2022-09-17T07:06:11.336Z,65.71
2022-09-17T07:08:39.697Z,66.53
2022-09-17T07:11:07.030Z,66.41
2022-09-17T07:13:34.161Z,66.38
2022-09-17T07:16:02.919Z,66.74
2022-09-17T07:18:30.282Z,66.73
2022-09-17T07:21:02.211Z,66.88
2022-09-17T07:23:32.188Z,66.23
2022-09-17T07:26:01.788Z,66.50
2022-09-17T07:28:29.588Z,66.61
2022-09-17T07:30:57.405Z,66.35
2022-09-17T07:33:27.110Z,66.88
2022-09-17T07:35:54.941Z,67.01
2022-09-17T07:38:23.016Z,66.39
2022-09-17T07:40:58.207Z,66.18
2022-09-17T07:43:30.682Z,66.20
2022-09-17T07:45:59.400Z,66.70
2022-09-17T07:48:28.402Z,65.99
2022-09-17T07:50:55.540Z,65.58
2022-09-17T07:53:22.972Z,65.65
2022-09-17T07:56:00.362Z,65.76
2022-09-17T07:58:34.515Z,65.83
2022-09-17T08:01:09.431Z,65.54
2022-09-17T08:03:37.983Z,65.82
2022-09-17T08:06:05.599Z,65.92
2022-09-17T08:08:37.540Z,66.10
2022-09-17T08:11:07.920Z,66.28
2022-09-17T08:13:36.463Z,66.18
2022-09-17T08:16:06.390Z,66.18
2022-09-17T08:18:33.800Z,66.46
2022-09-17T08:21:05.159Z,66.36
2022-09-17T08:23:35.320Z,66.35
2022-09-17T08:26:02.968Z,66.19
2022-09-17T08:28:31.470Z,65.91
2022-09-17T08:31:08.522Z,64.91
2022-09-17T08:33:38.940Z,64.90
2022-09-17T08:36:07.960Z,64.35
2022-09-17T08:38:39.361Z,65.02
2022-09-17T08:41:40.304Z,63.94
2022-09-17T08:44:16.060Z,64.34
2022-09-17T08:47:00.652Z,64.89
2022-09-17T08:49:56.260Z,64.73
2022-09-17T08:52:42.009Z,64.96
2022-09-17T08:55:29.379Z,64.88
2022-09-17T08:58:18.078Z,65.50
2022-09-17T09:01:06.270Z,65.81
2022-09-17T09:03:52.012Z,65.81
2022-09-17T09:06:25.620Z,65.85
2022-09-17T09:09:01.708Z,66.38
2022-09-17T09:11:31.561Z,65.63
2022-09-17T09:14:13.300Z,65.54
2022-09-17T09:16:45.521Z,64.78
2022-09-17T09:19:27.100Z,63.74
2022-09-17T09:22:12.398Z,64.09
2022-09-17T09:24:52.890Z,64.60
2022-09-17T09:27:28.778Z,64.59
2022-09-17T09:30:05.741Z,64.77
2022-09-17T09:32:40.460Z,64.82
2022-09-17T09:35:20.660Z,64.73
2022-09-17T09:38:12.876Z,63.78
2022-09-17T09:41:04.368Z,63.41
2022-09-17T09:44:04.010Z,62.96
2022-09-17T09:46:41.989Z,63.75
2022-09-17T09:49:24.310Z,63.85
2022-09-17T09:52:19.940Z,63.36
2022-09-17T09:55:24.576Z,63.25
2022-09-17T09:58:04.260Z,62.84
2022-09-17T10:00:37.411Z,63.43
2022-09-17T10:03:27.570Z,62.91
2022-09-17T10:05:59.131Z,61.83
2022-09-17T10:08:27.560Z,61.07
2022-09-17T10:10:56.160Z,60.84
2022-09-17T10:13:23.929Z,60.54
2022-09-17T10:15:51.081Z,60.37
2022-09-17T10:18:20.610Z,59.92
2022-09-17T10:20:56.270Z,59.50
2022-09-17T10:23:26.099Z,59.73
2022-09-17T10:25:56.280Z,59.82
2022-09-17T10:28:48.122Z,58.83
2022-09-17T10:31:15.404Z,59.38
2022-09-17T10:34:04.841Z,59.63
2022-09-17T10:36:52.470Z,59.30
2022-09-17T10:39:25.673Z,58.89
2022-09-17T10:41:59.799Z,58.09
2022-09-17T10:44:32.249Z,58.63
2022-09-17T10:47:26.262Z,58.58
2022-09-17T10:50:08.370Z,58.27
2022-09-17T10:52:39.578Z,57.68
2022-09-17T10:55:50.521Z,54.78
2022-09-17T10:58:23.381Z,54.85
2022-09-17T11:13:35.368Z,55.58
2022-09-17T11:16:05.068Z,56.21
2022-09-17T11:18:45.648Z,56.24
2022-09-17T11:21:47.280Z,56.48
2022-09-17T11:24:35.622Z,56.20
2022-09-17T11:27:16.862Z,53.48
2022-09-17T11:30:02.080Z,53.87
2022-09-17T11:32:49.714Z,53.91
2022-09-17T11:35:18.660Z,50.98
2022-09-17T11:38:14.770Z,49.70
2022-09-17T11:40:50.790Z,47.95
2022-09-17T11:43:26.791Z,47.67
2022-09-17T11:46:05.797Z,46.85
2022-09-17T11:48:40.574Z,46.92
2022-09-17T11:51:20.630Z,46.61
2022-09-17T11:53:59.056Z,45.94
2022-09-17T11:56:35.941Z,44.80
2022-09-17T11:59:14.958Z,44.24
2022-09-17T12:01:58.247Z,43.83
2022-09-17T12:04:52.673Z,44.22
2022-09-17T12:07:46.010Z,43.42
2022-09-17T12:10:25.705Z,43.52
2022-09-17T12:12:58.930Z,42.51
2022-09-17T12:15:30.032Z,41.51
2022-09-17T12:18:33.974Z,41.79
2022-09-17T12:21:05.251Z,41.95
2022-09-17T12:23:35.591Z,40.68
2022-09-17T12:26:45.360Z,40.95
2022-09-17T12:29:24.600Z,41.85
2022-09-17T12:32:48.921Z,39.94
2022-09-17T12:39:02.687Z,40.81
2022-09-17T12:41:49.351Z,41.19
2022-09-17T12:44:24.180Z,42.13
2022-09-17T12:47:42.529Z,40.92
2022-09-17T12:50:18.312Z,40.26
2022-09-17T12:53:13.391Z,40.17
2022-09-17T12:56:05.920Z,40.89
2022-09-17T12:58:43.121Z,40.76
2022-09-17T13:01:22.015Z,41.58
2022-09-17T13:03:56.040Z,42.41
2022-09-17T13:07:07.979Z,42.11
2022-09-17T13:09:53.671Z,42.44
2022-09-17T13:12:20.600Z,41.21
2022-09-17T13:15:06.880Z,40.62
2022-09-17T13:18:13.250Z,40.11
2022-09-17T13:21:02.168Z,41.01
2022-09-17T13:23:40.779Z,41.44
2022-09-17T13:26:09.819Z,41.42
2022-09-17T13:28:48.200Z,40.32
2022-09-17T13:31:44.775Z,42.26
2022-09-17T13:34:17.926Z,43.61
2022-09-17T13:36:52.509Z,43.75
2022-09-17T13:39:40.964Z,43.67
2022-09-17T13:42:19.659Z,44.09
2022-09-17T13:44:52.227Z,45.14
2022-09-17T13:47:22.150Z,44.40
2022-09-17T13:49:54.470Z,44.78
2022-09-17T13:52:48.801Z,45.09
2022-09-17T13:55:52.534Z,45.21
2022-09-17T13:58:19.420Z,44.92
2022-09-17T14:01:13.287Z,44.36
2022-09-17T14:03:46.818Z,45.07
2022-09-17T14:06:15.089Z,46.82
2022-09-17T14:08:41.802Z,47.44
2022-09-17T14:11:29.590Z,48.16
2022-09-17T14:14:05.590Z,48.70
2022-09-17T14:16:37.540Z,49.21
2022-09-17T14:19:16.763Z,50.20
2022-09-17T14:22:25.161Z,50.82
2022-09-17T14:24:54.479Z,51.35
2022-09-17T14:27:40.099Z,50.93
2022-09-17T14:30:13.658Z,51.06
2022-09-17T14:33:01.844Z,51.54
2022-09-17T14:35:43.040Z,52.23
2022-09-17T14:38:14.580Z,50.70
2022-09-17T14:41:02.086Z,47.49
2022-09-17T14:44:03.951Z,49.13
2022-09-17T14:46:35.109Z,49.91
2022-09-17T14:49:23.181Z,49.90
2022-09-17T14:51:50.640Z,50.75
2022-09-17T14:54:25.192Z,50.94
2022-09-17T14:57:03.580Z,50.22
2022-09-17T14:59:52.471Z,51.03
2022-09-17T15:02:43.545Z,50.38
2022-09-17T15:05:18.420Z,50.92
2022-09-17T15:07:46.485Z,51.05
2022-09-17T15:10:22.578Z,50.39
2022-09-17T15:12:51.016Z,50.94
2022-09-17T15:15:26.580Z,51.66
2022-09-17T15:17:54.623Z,52.07
2022-09-17T15:20:31.494Z,52.17
2022-09-17T15:23:20.479Z,53.02
2022-09-17T15:25:49.930Z,53.11
2022-09-17T15:28:30.901Z,53.54
2022-09-17T15:30:58.045Z,53.59
2022-09-17T15:33:25.170Z,53.45
2022-09-17T15:36:00.523Z,53.73
2022-09-17T15:38:29.741Z,53.98
2022-09-17T15:41:24.080Z,53.74
2022-09-17T15:43:51.582Z,53.00
2022-09-17T15:46:30.328Z,53.11
2022-09-17T15:49:02.238Z,53.23
2022-09-17T15:51:35.729Z,53.63
2022-09-17T15:54:05.314Z,54.14
2022-09-17T15:56:38.339Z,54.54
2022-09-17T15:59:44.192Z,54.87
2022-09-17T16:02:27.266Z,54.66
2022-09-17T16:05:18.931Z,55.25
2022-09-17T16:07:46.281Z,55.67
2022-09-17T16:10:15.480Z,56.19
2022-09-17T16:12:43.068Z,56.73
2022-09-17T16:15:10.289Z,57.04
2022-09-17T16:17:37.158Z,57.46
2022-09-17T16:20:24.863Z,57.88
2022-09-17T16:22:53.100Z,57.82
2022-09-17T16:25:23.200Z,57.86
2022-09-17T16:28:22.500Z,58.01
2022-09-17T16:30:49.851Z,58.69
2022-09-17T16:33:18.731Z,59.20
2022-09-17T16:35:45.761Z,58.71
2022-09-17T16:38:13.172Z,56.58
2022-09-17T16:40:42.165Z,57.02
2022-09-17T16:43:10.060Z,57.31
2022-09-17T16:45:37.421Z,57.20
2022-09-17T16:48:05.878Z,57.75
2022-09-17T16:50:33.780Z,57.93
2022-09-17T16:53:04.874Z,57.59
2022-09-17T16:55:32.721Z,57.57
2022-09-17T16:57:59.839Z,57.49
2022-09-17T17:00:27.431Z,56.88
2022-09-17T17:02:57.126Z,56.53
2022-09-17T17:05:26.061Z,57.09
2022-09-17T17:07:55.438Z,57.50
2022-09-17T17:10:28.481Z,57.43
2022-09-17T17:12:56.512Z,57.47
2022-09-17T17:15:23.908Z,56.88
2022-09-17T17:17:51.660Z,57.29
2022-09-17T17:20:19.320Z,57.60
2022-09-17T17:22:46.381Z,57.53
2022-09-17T17:25:15.470Z,55.59
2022-09-17T17:27:44.630Z,56.23
2022-09-17T17:30:17.797Z,57.04
2022-09-17T17:32:49.320Z,56.96
2022-09-17T17:35:16.380Z,56.42
2022-09-17T17:37:43.940Z,53.70
2022-09-17T17:40:11.023Z,53.38
2022-09-17T17:42:39.680Z,50.29
2022-09-17T17:45:07.987Z,51.28
2022-09-17T17:47:35.121Z,51.51
2022-09-17T17:50:02.582Z,49.77
2022-09-17T17:52:29.810Z,50.93
2022-09-17T17:54:56.801Z,52.15
2022-09-17T17:57:23.741Z,52.92
2022-09-17T17:59:50.731Z,53.25
2022-09-17T18:02:17.784Z,53.48
2022-09-17T18:04:44.890Z,53.51
2022-09-17T18:07:11.875Z,53.79
2022-09-17T18:09:38.864Z,54.69
2022-09-17T18:12:06.262Z,55.91
2022-09-17T18:14:33.323Z,56.58
2022-09-17T18:17:00.271Z,55.33
2022-09-17T18:19:27.200Z,53.54
2022-09-17T18:21:54.783Z,53.63
2022-09-17T18:24:21.823Z,54.14
2022-09-17T18:26:48.881Z,53.55
2022-09-17T18:29:15.872Z,53.37
2022-09-17T18:31:44.769Z,53.16
2022-09-17T18:34:14.149Z,53.07
2022-09-17T18:36:43.460Z,54.04
2022-09-17T18:42:02.182Z,55.16
2022-09-17T18:44:29.220Z,55.33
2022-09-17T18:46:56.332Z,55.04
2022-09-17T18:49:23.440Z,54.76
2022-09-17T18:51:50.341Z,54.78
2022-09-17T18:54:17.255Z,55.27
2022-09-17T18:56:44.280Z,53.76
2022-09-17T18:59:11.583Z,54.55
2022-09-17T19:01:38.613Z,56.43
2022-09-17T19:04:07.935Z,56.93
2022-09-17T19:06:35.645Z,57.22
2022-09-17T19:09:04.486Z,56.77
2022-09-17T19:11:31.550Z,56.52
2022-09-17T19:13:58.862Z,56.29
2022-09-17T19:16:25.969Z,56.05
2022-09-17T19:18:53.161Z,55.95
2022-09-17T19:21:21.879Z,56.25
2022-09-17T19:23:52.980Z,55.58
2022-09-17T19:26:22.495Z,55.47
2022-09-17T19:28:52.921Z,55.54
2022-09-17T19:31:20.380Z,55.18
2022-09-17T19:33:48.181Z,55.53
2022-09-17T19:36:16.670Z,55.82
2022-09-17T19:38:43.961Z,55.59
2022-09-17T19:41:20.031Z,54.99
2022-09-17T19:43:47.420Z,54.23
2022-09-17T19:46:17.008Z,53.61
2022-09-17T19:48:53.280Z,53.92
2022-09-17T19:51:21.610Z,53.42
2022-09-17T19:53:48.469Z,53.12
2022-09-17T19:56:18.690Z,53.23
2022-09-17T19:58:45.797Z,52.54
2022-09-17T20:01:13.948Z,53.18
2022-09-17T20:03:42.901Z,52.71
2022-09-17T20:06:12.310Z,52.44
2022-09-17T20:08:50.481Z,52.36
2022-09-17T20:11:19.901Z,52.66
2022-09-17T20:13:47.203Z,53.85
2022-09-17T20:16:20.432Z,54.37
2022-09-17T20:18:49.210Z,54.34
2022-09-17T20:21:17.629Z,54.80
2022-09-17T20:23:45.669Z,55.42
2022-09-17T20:26:12.828Z,55.39
2022-09-17T20:28:40.280Z,55.35
2022-09-17T20:31:12.891Z,55.08
2022-09-17T20:33:40.430Z,55.56
2022-09-17T20:36:11.360Z,55.74
2022-09-17T20:41:25.960Z,55.30
2022-09-17T20:43:53.867Z,55.05
2022-09-17T20:46:27.582Z,55.10
2022-09-17T20:48:57.784Z,55.10
2022-09-17T20:51:28.120Z,55.33
2022-09-17T20:53:55.521Z,55.64
2022-09-17T20:56:24.621Z,55.15
2022-09-17T20:59:03.413Z,55.52
2022-09-17T21:01:36.107Z,55.98
2022-09-17T21:04:05.246Z,56.24
2022-09-17T21:06:35.303Z,55.37
2022-09-17T21:09:03.176Z,55.37
2022-09-17T21:11:31.560Z,55.83
2022-09-17T21:13:59.711Z,55.92
2022-09-17T21:16:27.343Z,56.00
2022-09-17T21:19:05.022Z,56.15
2022-09-17T21:21:34.652Z,55.98
2022-09-17T21:24:03.271Z,56.15
2022-09-17T21:26:30.555Z,56.90
2022-09-17T21:28:57.963Z,57.55
2022-09-17T21:31:32.117Z,57.41
2022-09-17T21:34:02.103Z,57.10
2022-09-17T21:36:32.290Z,57.01
2022-09-17T21:39:05.309Z,57.10
2022-09-17T21:41:32.501Z,56.89
2022-09-17T21:44:00.015Z,56.90
2022-09-17T21:46:29.391Z,56.44
2022-09-17T21:49:00.158Z,54.74
2022-09-17T21:51:30.808Z,54.58
2022-09-17T21:54:00.626Z,53.10
2022-09-17T21:56:29.261Z,52.45
2022-09-17T21:59:01.640Z,52.02
2022-09-17T22:01:31.920Z,52.14
2022-09-17T22:04:00.146Z,53.43
2022-09-17T22:06:29.400Z,54.80
2022-09-17T22:08:57.402Z,55.59
2022-09-17T22:11:32.889Z,55.51
2022-09-17T22:14:05.400Z,55.18
2022-09-17T22:16:36.108Z,55.71
2022-09-17T22:19:04.339Z,56.66
2022-09-17T22:21:33.209Z,56.71
2022-09-17T22:24:02.104Z,55.65
2022-09-17T22:26:32.085Z,54.87
2022-09-17T22:29:07.361Z,55.62
2022-09-17T22:31:34.559Z,54.89
2022-09-17T22:34:02.144Z,56.10
2022-09-17T22:36:29.980Z,56.78
2022-09-17T22:38:58.718Z,57.51
2022-09-17T22:41:28.086Z,57.72
2022-09-17T22:44:03.119Z,57.51
2022-09-17T22:46:32.757Z,58.06
2022-09-17T22:49:00.459Z,58.09
2022-09-17T22:51:29.395Z,57.75
2022-09-17T22:53:57.120Z,57.56
2022-09-17T22:56:24.821Z,57.34
2022-09-17T22:58:52.119Z,57.20
2022-09-17T23:01:22.290Z,57.88
2022-09-17T23:03:51.566Z,58.11
2022-09-17T23:06:22.780Z,57.65
2022-09-17T23:08:50.470Z,57.70
2022-09-17T23:11:30.823Z,57.66
2022-09-17T23:14:02.389Z,57.48
2022-09-17T23:16:40.521Z,57.44
2022-09-17T23:19:07.489Z,57.93
2022-09-17T23:21:34.599Z,58.83
2022-09-17T23:24:01.960Z,58.30
2022-09-17T23:26:29.260Z,58.41
2022-09-17T23:28:58.959Z,58.21
2022-09-17T23:31:29.479Z,58.52
2022-09-17T23:33:56.811Z,58.42
2022-09-17T23:36:29.539Z,58.18
2022-09-17T23:38:58.320Z,58.59
2022-09-17T23:41:31.863Z,58.63
2022-09-17T23:44:00.891Z,59.00
2022-09-17T23:46:35.063Z,58.90
2022-09-17T23:49:04.122Z,58.90
2022-09-17T23:51:33.802Z,59.00
2022-09-17T23:54:00.981Z,59.56
2022-09-17T23:56:28.969Z,59.28
2022-09-17T23:58:57.010Z,59.28
